weather.gov     
National Weather Service

Terminal Aerodrome Forecast
NWS Homepage
This page is being discontinued on March 12, 2014.
The same data is available at this site. Please update your bookmarks.
Thank you, and we apologize for the inconvenience.
Please send an email to SR-SRH.Webmaster@noaa.gov with any concerns.


Current Version
Previous Version:    01  02  03  04  05  06  07  08  09  10  11  12  13  14  
[Printable]
159
FTUS41 KBOX 280525
TAFMHT
TAF
KMHT 280525Z 2806/2906 18005KT 2SM BR BKN035
     FM281000 VRB03KT 2SM -SHRA BR VCTS OVC015CB
     FM281300 13005KT 3SM -SHRA BR OVC008
     FM281700 20007KT P6SM OVC025
     FM282200 22007KT P6SM BKN090
     FM290300 25007KT 6SM BR BKN025=




159
FTUS41 KBOX 280525
TAFMHT
TAF
KMHT 280525Z 2806/2906 18005KT 2SM BR BKN035
     FM281000 VRB03KT 2SM -SHRA BR VCTS OVC015CB
     FM281300 13005KT 3SM -SHRA BR OVC008
     FM281700 20007KT P6SM OVC025
     FM282200 22007KT P6SM BKN090
     FM290300 25007KT 6SM BR BKN025=


U.S. Dept. of Commerce
NOAA National Weather Service
1325 East West Highway
Silver Spring, MD 20910
E-mail: w-nws.webmaster@noaa.gov
Page last modified: May 16, 2007
NATIONAL WEATHER SERVICE: for Safety, for Work, for Fun - FOR LIFE